createdAt,value
2018-05-14T00:00:25.485Z,20.9
2018-05-14T00:01:15.288Z,20.9
2018-05-14T00:02:04.794Z,20.9
2018-05-14T00:02:54.020Z,20.9
2018-05-14T00:03:45.414Z,20.9
2018-05-14T00:04:35.247Z,20.9
2018-05-14T00:05:25.311Z,20.9
2018-05-14T00:06:15.676Z,20.9
2018-05-14T00:07:05.123Z,20.9
2018-05-14T00:07:55.494Z,20.9
2018-05-14T00:08:45.597Z,20.9
2018-05-14T00:09:35.360Z,20.9
2018-05-14T00:10:25.867Z,20.9
2018-05-14T00:11:16.032Z,20.9
2018-05-14T00:12:06.056Z,20.9
2018-05-14T00:12:55.858Z,20.9
2018-05-14T00:13:46.484Z,20.9
2018-05-14T00:14:36.536Z,20.9
2018-05-14T00:15:25.266Z,20.9
2018-05-14T00:16:16.651Z,20.9
2018-05-14T00:17:06.191Z,20.9
2018-05-14T00:17:56.796Z,20.9
2018-05-14T00:18:46.549Z,20.9
2018-05-14T00:19:36.892Z,20.9
2018-05-14T00:20:26.813Z,20.9
2018-05-14T00:21:16.836Z,20.9
2018-05-14T00:22:06.868Z,20.9
2018-05-14T00:22:56.663Z,20.9
2018-05-14T00:23:46.098Z,20.9
2018-05-14T00:24:37.096Z,20.9
2018-05-14T00:25:26.540Z,20.9
2018-05-14T00:26:17.435Z,20.9
2018-05-14T00:27:06.938Z,20.9
2018-05-14T00:27:57.242Z,20.9
2018-05-14T00:28:47.325Z,20.9
2018-05-14T00:29:37.120Z,20.9
2018-05-14T00:30:27.178Z,20.9
2018-05-14T00:31:17.251Z,20.9
2018-05-14T00:32:07.887Z,20.9
2018-05-14T00:32:57.985Z,20.9
2018-05-14T00:33:47.737Z,20.9
2018-05-14T00:34:37.548Z,20.9
2018-05-14T00:35:28.139Z,20.9
2018-05-14T00:36:17.573Z,20.9
2018-05-14T00:37:07.770Z,20.9
2018-05-14T00:37:58.255Z,20.9
2018-05-14T00:38:48.109Z,20.9
2018-05-14T00:39:38.408Z,20.9
2018-05-14T00:40:27.647Z,20.9
2018-05-14T00:41:18.332Z,20.9
2018-05-14T00:42:08.332Z,20.9
2018-05-14T00:42:57.904Z,20.9
2018-05-14T00:43:48.203Z,20.9
2018-05-14T00:44:38.531Z,20.9
2018-05-14T00:45:28.884Z,20.9
2018-05-14T00:46:18.672Z,20.9
2018-05-14T00:47:08.440Z,20.9
2018-05-14T00:47:58.749Z,20.9
2018-05-14T00:48:48.574Z,20.9
2018-05-14T00:49:40.037Z,20.9
2018-05-14T00:50:29.249Z,20.9
2018-05-14T00:51:19.032Z,20.9
2018-05-14T00:52:08.793Z,20.9
2018-05-14T00:52:59.174Z,20.9
2018-05-14T00:53:49.211Z,20.9
2018-05-14T00:54:39.257Z,20.9
2018-05-14T00:55:29.320Z,20.9
2018-05-14T00:56:18.854Z,20.9
2018-05-14T00:57:09.728Z,20.9
2018-05-14T00:57:59.511Z,20.9
2018-05-14T00:58:49.009Z,20.9
2018-05-14T00:59:39.883Z,20.9
2018-05-14T01:00:29.185Z,20.9
2018-05-14T01:01:19.480Z,20.9
2018-05-14T01:02:10.121Z,20.9
2018-05-14T01:02:59.707Z,20.9
2018-05-14T01:03:49.950Z,20.9
2018-05-14T01:04:40.348Z,20.9
2018-05-14T01:05:30.360Z,20.9
2018-05-14T01:06:19.858Z,20.9
2018-05-14T01:07:10.210Z,20.9
2018-05-14T01:08:00.650Z,20.9
2018-05-14T01:08:50.040Z,20.9
2018-05-14T01:09:40.397Z,20.9
2018-05-14T01:10:30.155Z,20.9
2018-05-14T01:11:20.772Z,20.9
2018-05-14T01:12:10.884Z,20.9
2018-05-14T01:13:00.624Z,20.9
2018-05-14T01:13:50.134Z,20.9
2018-05-14T01:14:41.072Z,20.9
2018-05-14T01:15:30.541Z,20.9
2018-05-14T01:16:21.184Z,20.9
2018-05-14T01:17:10.134Z,20.9
2018-05-14T01:18:00.752Z,20.9
2018-05-14T01:18:51.472Z,20.9
2018-05-14T01:19:40.581Z,20.9
2018-05-14T01:20:31.475Z,20.9
2018-05-14T01:21:21.569Z,20.9
2018-05-14T01:22:11.084Z,20.9
2018-05-14T01:23:01.711Z,20.9
2018-05-14T01:23:51.580Z,20.9
2018-05-14T01:24:41.892Z,20.9
2018-05-14T01:25:31.494Z,20.9
2018-05-14T01:26:22.027Z,20.9
2018-05-14T01:27:10.884Z,20.9
2018-05-14T01:28:02.192Z,20.9
2018-05-14T01:28:51.638Z,20.9
2018-05-14T01:29:41.333Z,20.9
2018-05-14T01:30:31.139Z,20.9
2018-05-14T01:31:22.035Z,20.9
2018-05-14T01:32:11.841Z,20.9
2018-05-14T01:33:02.262Z,20.9
2018-05-14T01:33:51.676Z,20.9
2018-05-14T01:34:42.611Z,20.9
2018-05-14T01:35:32.345Z,20.9
2018-05-14T01:36:22.506Z,20.9
2018-05-14T01:37:11.913Z,20.9
2018-05-14T01:38:02.303Z,20.9
2018-05-14T01:38:52.866Z,20.9
2018-05-14T01:39:42.368Z,20.9
2018-05-14T01:40:32.484Z,20.9
2018-05-14T01:41:23.097Z,20.9
2018-05-14T01:42:13.150Z,20.9
2018-05-14T01:43:03.165Z,20.9
2018-05-14T01:43:53.063Z,20.9
2018-05-14T01:44:43.422Z,20.9
2018-05-14T01:45:33.154Z,20.9
2018-05-14T01:46:23.195Z,20.9
2018-05-14T01:47:12.700Z,20.9
2018-05-14T01:48:02.761Z,20.9
2018-05-14T01:48:53.368Z,20.9
2018-05-14T01:49:42.893Z,20.9
2018-05-14T01:50:33.470Z,20.9
2018-05-14T01:51:23.014Z,20.9
2018-05-14T01:52:13.355Z,20.9
2018-05-14T01:53:03.506Z,20.9
2018-05-14T01:53:53.449Z,20.9
2018-05-14T01:54:43.583Z,20.9
2018-05-14T01:55:34.101Z,20.9
2018-05-14T01:56:24.210Z,20.9
2018-05-14T01:57:14.230Z,20.9
2018-05-14T01:58:02.925Z,20.9
2018-05-14T01:58:54.089Z,20.9
2018-05-14T01:59:44.211Z,20.9
2018-05-14T02:00:34.267Z,20.9
2018-05-14T02:01:24.002Z,20.9
2018-05-14T02:02:14.056Z,20.9
2018-05-14T02:03:04.372Z,20.9
2018-05-14T02:03:54.492Z,20.9
2018-05-14T02:04:43.929Z,20.9
2018-05-14T02:05:34.011Z,20.9
2018-05-14T02:06:24.909Z,20.9
2018-05-14T02:07:14.703Z,20.9
2018-05-14T02:08:04.181Z,20.9
2018-05-14T02:08:54.836Z,20.9
2018-05-14T02:09:44.891Z,20.9
2018-05-14T02:10:35.256Z,20.9
2018-05-14T02:11:24.779Z,20.9
2018-05-14T02:12:15.458Z,20.9
2018-05-14T02:13:05.184Z,20.9
2018-05-14T02:13:55.219Z,20.9
2018-05-14T02:14:45.412Z,20.9
2018-05-14T02:15:35.375Z,20.9
2018-05-14T02:16:25.423Z,20.9
2018-05-14T02:17:15.481Z,20.9
2018-05-14T02:18:05.221Z,20.9
2018-05-14T02:18:55.866Z,20.9
2018-05-14T02:19:45.638Z,20.9
2018-05-14T02:20:35.999Z,20.9
2018-05-14T02:21:25.848Z,20.9
2018-05-14T02:22:15.881Z,20.9
2018-05-14T02:23:05.340Z,20.9
2018-05-14T02:23:55.710Z,20.9
2018-05-14T02:24:45.758Z,20.9
2018-05-14T02:25:35.480Z,20.9
2018-05-14T02:26:26.142Z,20.9
2018-05-14T02:27:16.015Z,20.9
2018-05-14T02:28:06.597Z,20.9
2018-05-14T02:28:56.699Z,20.9
2018-05-14T02:29:46.155Z,20.9
2018-05-14T02:30:35.351Z,20.9
2018-05-14T02:31:26.590Z,20.9
2018-05-14T02:32:16.973Z,20.9
2018-05-14T02:33:05.562Z,20.9
2018-05-14T02:33:56.440Z,20.9
2018-05-14T02:34:46.553Z,20.9
2018-05-14T02:35:37.132Z,20.9
2018-05-14T02:36:26.694Z,20.9
2018-05-14T02:37:17.104Z,20.9
2018-05-14T02:38:07.097Z,20.9
2018-05-14T02:38:56.520Z,20.9
2018-05-14T02:39:46.879Z,20.9
2018-05-14T02:40:36.962Z,20.9
2018-05-14T02:41:26.773Z,20.9
2018-05-14T02:42:17.131Z,20.9
2018-05-14T02:43:07.557Z,20.9
2018-05-14T02:43:57.791Z,20.9
2018-05-14T02:44:47.833Z,20.9
2018-05-14T02:45:37.901Z,20.9
2018-05-14T02:46:27.651Z,20.9
2018-05-14T02:47:17.422Z,20.9
2018-05-14T02:48:07.824Z,20.9
2018-05-14T02:48:57.019Z,20.9
2018-05-14T02:49:48.239Z,20.9
2018-05-14T02:50:37.817Z,20.9
2018-05-14T02:51:28.041Z,20.9
2018-05-14T02:52:17.851Z,20.9
2018-05-14T02:53:08.482Z,20.9
2018-05-14T02:53:58.544Z,20.9
2018-05-14T02:54:48.114Z,20.9
2018-05-14T02:55:38.723Z,20.9
2018-05-14T02:56:28.719Z,20.9
2018-05-14T02:57:18.346Z,20.9
2018-05-14T02:58:08.836Z,20.9
2018-05-14T02:58:58.992Z,20.9
2018-05-14T02:59:48.414Z,20.9
2018-05-14T03:00:39.042Z,20.9
2018-05-14T03:01:29.068Z,20.9
2018-05-14T03:02:18.880Z,20.9
2018-05-14T03:03:08.660Z,20.9
2018-05-14T03:03:59.233Z,20.9
2018-05-14T03:04:48.748Z,20.9
2018-05-14T03:05:38.594Z,20.9
2018-05-14T03:06:28.915Z,20.9
2018-05-14T03:07:18.424Z,20.9
2018-05-14T03:08:09.058Z,20.9
2018-05-14T03:08:58.918Z,20.9
2018-05-14T03:09:49.428Z,20.9
2018-05-14T03:10:40.241Z,20.9
2018-05-14T03:11:29.535Z,20.9
2018-05-14T03:12:19.675Z,20.9
2018-05-14T03:13:09.134Z,20.9
2018-05-14T03:13:58.641Z,20.9
2018-05-14T03:14:50.050Z,20.9
2018-05-14T03:15:39.586Z,20.9
2018-05-14T03:16:30.203Z,20.9
2018-05-14T03:17:20.027Z,20.9
2018-05-14T03:18:10.072Z,20.9
2018-05-14T03:19:00.085Z,20.9
2018-05-14T03:19:50.135Z,20.9
2018-05-14T03:20:39.952Z,20.9
2018-05-14T03:21:30.330Z,20.9
2018-05-14T03:22:20.352Z,20.9
2018-05-14T03:23:10.647Z,20.9
2018-05-14T03:24:00.704Z,20.9
2018-05-14T03:24:50.257Z,20.9
2018-05-14T03:25:41.026Z,20.8
2018-05-14T03:26:30.641Z,20.9
2018-05-14T03:27:20.724Z,20.9
2018-05-14T03:28:10.866Z,20.9
2018-05-14T03:29:00.606Z,20.9
2018-05-14T03:29:51.184Z,20.9
2018-05-14T03:30:40.797Z,20.9
2018-05-14T03:31:31.454Z,20.8
2018-05-14T03:32:21.094Z,20.9
2018-05-14T03:33:11.433Z,20.9
2018-05-14T03:34:01.204Z,20.9
2018-05-14T03:34:51.564Z,20.9
2018-05-14T03:35:41.614Z,20.9
2018-05-14T03:36:31.691Z,20.9
2018-05-14T03:37:20.996Z,20.9
2018-05-14T03:38:11.546Z,20.9
2018-05-14T03:39:01.836Z,20.8
2018-05-14T03:39:51.936Z,20.9
2018-05-14T03:40:42.004Z,20.8
2018-05-14T03:41:31.786Z,20.9
2018-05-14T03:42:21.560Z,20.9
2018-05-14T03:43:12.158Z,20.9
2018-05-14T03:44:01.953Z,20.9
2018-05-14T03:44:52.006Z,20.9
2018-05-14T03:45:41.791Z,20.9
2018-05-14T03:46:32.511Z,20.9
2018-05-14T03:47:22.550Z,20.9
2018-05-14T03:48:11.726Z,20.9
2018-05-14T03:49:02.628Z,20.9
2018-05-14T03:49:52.241Z,20.9
2018-05-14T03:50:42.755Z,20.9
2018-05-14T03:51:32.552Z,20.9
2018-05-14T03:52:22.554Z,20.9
2018-05-14T03:53:12.920Z,20.9
2018-05-14T03:54:02.498Z,20.9
2018-05-14T03:54:52.524Z,20.9
2018-05-14T03:55:43.150Z,20.9
2018-05-14T03:56:32.672Z,20.9
2018-05-14T03:57:23.299Z,20.9
2018-05-14T03:58:12.870Z,20.8
2018-05-14T03:59:02.399Z,20.8
2018-05-14T03:59:52.653Z,20.9
2018-05-14T04:00:42.508Z,20.8
2018-05-14T04:01:32.575Z,20.9
2018-05-14T04:02:24.339Z,20.9
2018-05-14T04:03:12.503Z,20.9
2018-05-14T04:04:02.759Z,20.9
2018-05-14T04:04:52.509Z,20.9
2018-05-14T04:05:43.697Z,20.8
2018-05-14T04:06:33.315Z,20.9
2018-05-14T04:07:22.943Z,20.9
2018-05-14T04:08:13.045Z,20.8
2018-05-14T04:09:03.303Z,20.9
2018-05-14T04:09:53.914Z,20.8
2018-05-14T04:10:43.117Z,20.9
2018-05-14T04:11:33.765Z,20.9
2018-05-14T04:12:24.523Z,20.9
2018-05-14T04:13:14.458Z,20.8
2018-05-14T04:14:03.669Z,20.9
2018-05-14T04:14:54.289Z,20.9
2018-05-14T04:15:44.644Z,20.8
2018-05-14T04:16:34.978Z,20.9
2018-05-14T04:17:24.504Z,20.9
2018-05-14T04:18:14.842Z,20.9
2018-05-14T04:19:04.629Z,20.9
2018-05-14T04:19:54.123Z,20.9
2018-05-14T04:20:44.758Z,20.9
2018-05-14T04:21:34.270Z,20.9
2018-05-14T04:22:24.854Z,20.9
2018-05-14T04:23:14.377Z,20.9
2018-05-14T04:24:04.981Z,20.9
2018-05-14T04:24:55.352Z,20.9
2018-05-14T04:25:44.830Z,20.9
2018-05-14T04:26:34.354Z,20.9
2018-05-14T04:27:25.212Z,20.9
2018-05-14T04:28:15.257Z,20.9
2018-05-14T04:29:04.808Z,20.9
2018-05-14T04:29:55.138Z,20.9
2018-05-14T04:30:44.972Z,20.9
2018-05-14T04:31:34.497Z,20.9
2018-05-14T04:32:25.329Z,20.9
2018-05-14T04:33:15.374Z,20.9
2018-05-14T04:34:05.989Z,20.9
2018-05-14T04:34:54.995Z,20.9
2018-05-14T04:35:45.302Z,20.9
2018-05-14T04:36:35.661Z,20.9
2018-05-14T04:37:25.764Z,20.9
2018-05-14T04:38:15.777Z,20.9
2018-05-14T04:39:05.535Z,20.9
2018-05-14T04:39:56.548Z,20.9
2018-05-14T04:40:46.230Z,20.8
2018-05-14T04:41:36.287Z,20.8
2018-05-14T04:42:26.413Z,20.9
2018-05-14T04:43:16.115Z,20.9
2018-05-14T04:44:06.172Z,20.8
2018-05-14T04:44:56.529Z,20.9
2018-05-14T04:45:46.354Z,20.9
2018-05-14T04:46:36.086Z,20.9
2018-05-14T04:47:26.490Z,20.8
2018-05-14T04:48:15.947Z,20.9
2018-05-14T04:49:06.325Z,20.8
2018-05-14T04:49:56.957Z,20.8
2018-05-14T04:50:46.979Z,20.9
2018-05-14T04:51:36.274Z,20.9
2018-05-14T04:52:26.905Z,20.9
2018-05-14T04:53:17.218Z,20.9
2018-05-14T04:54:07.496Z,20.9
2018-05-14T04:54:57.339Z,20.8
2018-05-14T04:55:47.384Z,20.9
2018-05-14T04:56:37.155Z,20.9
2018-05-14T04:57:27.545Z,20.9
2018-05-14T04:58:17.356Z,20.9
2018-05-14T04:59:07.969Z,20.9
2018-05-14T04:59:57.951Z,20.8
2018-05-14T05:00:47.607Z,20.9
2018-05-14T05:01:36.472Z,20.9
2018-05-14T05:02:27.213Z,20.9
2018-05-14T05:03:17.704Z,20.9
2018-05-14T05:04:07.412Z,20.9
2018-05-14T05:04:58.419Z,20.9
2018-05-14T05:05:48.454Z,20.8
2018-05-14T05:06:37.942Z,20.9
2018-05-14T05:07:27.978Z,20.9
2018-05-14T05:08:18.077Z,20.9
2018-05-14T05:09:08.065Z,20.9
2018-05-14T05:09:58.120Z,20.9
2018-05-14T05:10:48.231Z,20.9
2018-05-14T05:11:39.136Z,20.9
2018-05-14T05:12:28.375Z,20.9
2018-05-14T05:13:18.158Z,20.9
2018-05-14T05:14:08.785Z,20.9
2018-05-14T05:14:58.842Z,20.9
2018-05-14T05:15:48.418Z,20.9
2018-05-14T05:16:38.969Z,20.9
2018-05-14T05:17:28.205Z,20.9
2018-05-14T05:18:18.809Z,20.9
2018-05-14T05:19:09.517Z,20.9
2018-05-14T05:19:58.925Z,20.9
2018-05-14T05:20:49.576Z,20.9
2018-05-14T05:21:37.726Z,20.9
2018-05-14T05:22:28.471Z,20.9
2018-05-14T05:23:19.816Z,20.9
2018-05-14T05:24:09.227Z,20.9
2018-05-14T05:24:58.722Z,20.8
2018-05-14T05:25:49.683Z,20.9
2018-05-14T05:26:39.709Z,20.9
2018-05-14T05:27:28.443Z,20.9
2018-05-14T05:28:19.912Z,20.9
2018-05-14T05:29:09.078Z,20.9
2018-05-14T05:29:59.180Z,20.9
2018-05-14T05:30:49.508Z,20.9
2018-05-14T05:31:39.795Z,20.9
2018-05-14T05:32:29.915Z,20.9
2018-05-14T05:33:19.718Z,20.9
2018-05-14T05:34:09.846Z,20.9
2018-05-14T05:35:00.563Z,20.9
2018-05-14T05:35:50.428Z,20.9
2018-05-14T05:36:40.163Z,20.9
2018-05-14T05:37:30.758Z,20.9
2018-05-14T05:38:20.534Z,20.9
2018-05-14T05:39:10.671Z,20.9
2018-05-14T05:40:00.127Z,20.9
2018-05-14T05:40:50.735Z,20.9
2018-05-14T05:41:40.505Z,20.9
2018-05-14T05:42:30.940Z,20.9
2018-05-14T05:43:20.915Z,20.9
2018-05-14T05:44:10.979Z,20.9
2018-05-14T05:45:01.050Z,20.9
2018-05-14T05:45:51.390Z,20.9
2018-05-14T05:46:40.871Z,20.9
2018-05-14T05:47:31.495Z,20.9
2018-05-14T05:48:20.976Z,20.9
2018-05-14T05:49:11.347Z,20.9
2018-05-14T05:50:01.176Z,20.9
2018-05-14T05:50:50.627Z,20.9
2018-05-14T05:51:40.689Z,20.9
2018-05-14T05:52:32.466Z,20.9
2018-05-14T05:53:21.368Z,20.9
2018-05-14T05:54:12.033Z,20.9
2018-05-14T05:55:01.551Z,20.9
2018-05-14T05:55:51.568Z,20.9
2018-05-14T05:56:41.135Z,20.9
2018-05-14T05:57:31.718Z,20.9
2018-05-14T05:58:21.244Z,20.9
2018-05-14T05:59:10.960Z,20.9
2018-05-14T06:00:01.945Z,20.9
2018-05-14T06:00:51.674Z,20.9
2018-05-14T06:01:42.640Z,20.9
2018-05-14T06:02:32.039Z,20.9
2018-05-14T06:03:21.932Z,20.9
2018-05-14T06:04:11.673Z,20.9
2018-05-14T06:05:02.242Z,20.9
2018-05-14T06:05:52.874Z,20.9
2018-05-14T06:06:42.459Z,20.9
2018-05-14T06:07:32.159Z,20.9
2018-05-14T06:08:23.056Z,20.9
2018-05-14T06:09:13.143Z,20.9
2018-05-14T06:10:02.091Z,20.9
2018-05-14T06:10:52.785Z,20.9
2018-05-14T06:11:43.072Z,20.9
2018-05-14T06:12:32.272Z,20.9
2018-05-14T06:13:23.430Z,20.9
2018-05-14T06:14:13.259Z,20.9
2018-05-14T06:15:03.570Z,20.9
2018-05-14T06:15:53.147Z,20.9
2018-05-14T06:16:43.112Z,20.9
2018-05-14T06:17:32.619Z,20.9
2018-05-14T06:18:22.985Z,20.9
2018-05-14T06:19:13.309Z,20.9
2018-05-14T06:20:03.973Z,20.9
2018-05-14T06:20:53.440Z,20.9
2018-05-14T06:21:43.778Z,20.9
2018-05-14T06:22:34.209Z,20.9
2018-05-14T06:23:23.902Z,20.9
2018-05-14T06:24:13.730Z,20.9
2018-05-14T06:25:03.760Z,20.9
2018-05-14T06:25:53.529Z,20.9
2018-05-14T06:26:44.436Z,20.9
2018-05-14T06:27:33.968Z,20.9
2018-05-14T06:28:24.003Z,20.9
2018-05-14T06:29:14.145Z,20.9
2018-05-14T06:30:04.484Z,20.9
2018-05-14T06:30:54.515Z,20.9
2018-05-14T06:31:44.497Z,21
2018-05-14T06:32:34.228Z,20.9
2018-05-14T06:33:24.961Z,21
2018-05-14T06:34:14.752Z,21
2018-05-14T06:35:05.224Z,21
2018-05-14T06:35:55.506Z,21
2018-05-14T06:36:44.926Z,21
2018-05-14T06:37:34.997Z,21
2018-05-14T06:38:24.744Z,21
2018-05-14T06:39:14.020Z,21
2018-05-14T06:40:05.176Z,21
2018-05-14T06:40:55.236Z,21
2018-05-14T06:41:44.948Z,21
2018-05-14T06:42:34.516Z,21
2018-05-14T06:43:25.431Z,21
2018-05-14T06:44:15.947Z,21
2018-05-14T06:45:04.726Z,21
2018-05-14T06:45:54.638Z,21
2018-05-14T06:46:45.660Z,21
2018-05-14T06:47:35.446Z,21
2018-05-14T06:48:25.245Z,21
2018-05-14T06:49:16.185Z,21
2018-05-14T06:50:05.180Z,21
2018-05-14T06:50:55.401Z,21
2018-05-14T06:51:45.778Z,21
2018-05-14T06:52:35.832Z,21
2018-05-14T06:53:25.289Z,21
2018-05-14T06:54:16.411Z,21
2018-05-14T06:55:06.556Z,21
2018-05-14T06:55:56.218Z,21
2018-05-14T06:56:46.526Z,21
2018-05-14T06:57:35.913Z,21
2018-05-14T06:58:26.831Z,21
2018-05-14T06:59:16.892Z,21.1
2018-05-14T07:00:07.033Z,21
2018-05-14T07:00:56.162Z,21
2018-05-14T07:01:46.222Z,21
2018-05-14T07:02:36.664Z,21
2018-05-14T07:03:27.260Z,21
2018-05-14T07:04:17.440Z,21
2018-05-14T07:05:06.626Z,21.1
2018-05-14T07:05:57.442Z,21.1
2018-05-14T07:06:46.929Z,21
2018-05-14T07:07:37.705Z,21
2018-05-14T07:08:27.013Z,21.1
2018-05-14T07:09:16.819Z,21.1
2018-05-14T07:10:07.129Z,21.1
2018-05-14T07:10:57.569Z,21
2018-05-14T07:11:46.164Z,21
2018-05-14T07:12:37.606Z,21.1
2018-05-14T07:13:27.114Z,21.1
2018-05-14T07:14:16.893Z,21.1
2018-05-14T07:15:07.661Z,21.1
2018-05-14T07:15:58.064Z,21.1
2018-05-14T07:16:47.619Z,21.1
2018-05-14T07:17:38.389Z,21.1
2018-05-14T07:18:28.071Z,21
2018-05-14T07:19:18.518Z,21.1
2018-05-14T07:20:07.180Z,21.1
2018-05-14T07:20:57.681Z,21.1
2018-05-14T07:21:47.737Z,21.1
2018-05-14T07:22:38.388Z,21.1
2018-05-14T07:23:28.435Z,21.1
2018-05-14T07:24:18.205Z,21.1
2018-05-14T07:25:08.576Z,21.1
2018-05-14T07:25:58.039Z,21.1
2018-05-14T07:26:48.423Z,21.1
2018-05-14T07:27:37.941Z,21.1
2018-05-14T07:28:28.550Z,21.1
2018-05-14T07:29:19.173Z,21.1
2018-05-14T07:30:09.280Z,21.1
2018-05-14T07:30:59.010Z,21.1
2018-05-14T07:31:48.289Z,21.1
2018-05-14T07:32:38.892Z,21.1
2018-05-14T07:33:29.374Z,21.1
2018-05-14T07:34:19.215Z,21.1
2018-05-14T07:35:08.803Z,21.1
2018-05-14T07:35:58.892Z,21.1
2018-05-14T07:36:48.869Z,21.1
2018-05-14T07:37:39.528Z,21.1
2018-05-14T07:38:28.723Z,21.1
2018-05-14T07:39:20.090Z,21.1
2018-05-14T07:40:09.110Z,21.1
2018-05-14T07:40:59.164Z,21.1
2018-05-14T07:41:49.795Z,21.1
2018-05-14T07:42:39.839Z,21.1
2018-05-14T07:43:29.642Z,21.1
2018-05-14T07:44:20.097Z,21.1
2018-05-14T07:45:10.168Z,21.1
2018-05-14T07:46:00.503Z,21.1
2018-05-14T07:46:50.545Z,21.1
2018-05-14T07:47:40.506Z,21.1
2018-05-14T07:48:30.036Z,21.1
2018-05-14T07:49:20.584Z,21.1
2018-05-14T07:50:10.049Z,21.1
2018-05-14T07:51:00.168Z,21.1
2018-05-14T07:51:50.485Z,21.1
2018-05-14T07:52:40.468Z,21.1
2018-05-14T07:53:30.966Z,21.1
2018-05-14T07:54:21.025Z,21.1
2018-05-14T07:56:50.522Z,21.1
2018-05-14T07:58:30.485Z,21.1
2018-05-14T07:59:20.976Z,21.1
2018-05-14T08:00:11.988Z,21.1
2018-05-14T08:01:00.229Z,21.1
2018-05-14T08:02:40.898Z,21.1
2018-05-14T08:06:01.668Z,21.1
2018-05-14T08:07:41.744Z,21.1
2018-05-14T08:08:32.210Z,21.1
2018-05-14T08:09:21.226Z,21.1
2018-05-14T08:11:02.053Z,21.1
2018-05-14T08:12:41.102Z,21.1
2018-05-14T08:16:51.875Z,21.1
2018-05-14T08:18:32.284Z,21.1
2018-05-14T09:20:16.880Z,21.2
2018-05-14T09:25:17.562Z,21.2
2018-05-14T09:26:07.349Z,21.2
2018-05-14T09:31:08.012Z,21.2
2018-05-14T09:33:37.652Z,21.2
2018-05-14T09:34:28.565Z,21.2
2018-05-14T09:35:18.120Z,21.2
2018-05-14T09:37:48.512Z,21.2
2018-05-14T09:46:58.393Z,21.2
2018-05-14T09:49:29.140Z,21.2
2018-05-14T09:53:39.234Z,21.2
2018-05-14T09:55:19.572Z,21.2
2018-05-14T10:01:09.559Z,21.2
2018-05-14T10:02:50.145Z,21.2
2018-05-14T10:07:50.830Z,21.2
2018-05-14T10:08:40.253Z,21.2
2018-05-14T10:12:50.948Z,21.2
2018-05-14T10:17:51.662Z,21.2
2018-05-14T10:20:21.450Z,21.2
2018-05-14T10:26:12.181Z,21.2
2018-05-14T10:28:42.031Z,21.2
2018-05-14T10:29:32.813Z,21.2
2018-05-14T10:32:03.229Z,21.2
2018-05-14T10:32:52.633Z,21.2
2018-05-14T10:37:52.484Z,21.2
2018-05-14T10:39:33.212Z,21.2
2018-05-14T10:43:42.646Z,21.2
2018-05-14T10:45:23.576Z,21.2
2018-05-14T10:46:12.800Z,21.2
2018-05-14T10:47:54.130Z,21.2
2018-05-14T10:53:43.475Z,21.2
2018-05-14T10:57:04.482Z,21.2
2018-05-14T11:01:14.251Z,21.2
2018-05-14T11:02:54.683Z,21.2
2018-05-14T11:08:45.618Z,21.2
2018-05-14T11:09:35.716Z,21.2
2018-05-14T11:12:55.378Z,21.2
2018-05-14T11:40:27.772Z,21.1
2018-05-14T11:41:17.791Z,21.1
2018-05-14T11:42:07.887Z,21.1
2018-05-14T11:42:57.671Z,21.1
2018-05-14T11:47:58.034Z,21.1
2018-05-14T11:50:27.367Z,21.1
2018-05-14T11:51:18.024Z,21.1
2018-05-14T11:52:08.657Z,21.1
2018-05-14T11:52:57.565Z,21.1
2018-05-14T11:53:48.491Z,21.1
2018-05-14T11:54:38.846Z,21.1
2018-05-14T11:55:28.607Z,21.1
2018-05-14T11:56:18.673Z,21.1
2018-05-14T11:57:57.954Z,21.1
2018-05-14T12:00:29.239Z,21.1
2018-05-14T12:01:19.592Z,21.1
2018-05-14T12:02:09.091Z,21.1
2018-05-14T12:03:49.553Z,21.1
2018-05-14T12:04:39.539Z,21.1
2018-05-14T12:06:19.757Z,21.1
2018-05-14T12:07:09.757Z,21.1
2018-05-14T12:08:00.097Z,21.1
2018-05-14T12:08:50.144Z,21.1
2018-05-14T12:09:39.684Z,21.1
2018-05-14T12:11:20.332Z,21.1
2018-05-14T12:12:11.140Z,21.1
2018-05-14T12:13:00.167Z,21.1
2018-05-14T12:13:50.242Z,21.1
2018-05-14T12:14:40.011Z,21.1
2018-05-14T12:15:30.710Z,21.1
2018-05-14T12:16:20.343Z,21.1
2018-05-14T12:17:09.374Z,21.1
2018-05-14T12:18:01.227Z,21.1
2018-05-14T12:18:50.651Z,21.1
2018-05-14T12:20:31.091Z,21.1
2018-05-14T12:21:20.558Z,21.1
2018-05-14T12:22:10.900Z,21.1
2018-05-14T12:23:01.253Z,21.1
2018-05-14T12:23:51.029Z,21.1
2018-05-14T12:24:40.252Z,21.1
2018-05-14T12:28:01.616Z,21.1
2018-05-14T12:28:51.746Z,21.1
2018-05-14T12:29:40.427Z,21.1
2018-05-14T12:30:31.826Z,21.1
2018-05-14T12:31:21.923Z,21.1
2018-05-14T12:32:11.027Z,21.1
2018-05-14T12:40:32.031Z,21.1
2018-05-14T12:42:12.199Z,21.1
2018-05-14T12:43:02.257Z,21.1
2018-05-14T12:43:52.003Z,21.1
2018-05-14T12:44:42.622Z,21.1
2018-05-14T12:45:32.087Z,21.1
2018-05-14T12:46:23.071Z,21.1
2018-05-14T12:47:12.562Z,21.1
2018-05-14T12:49:42.760Z,21.1
2018-05-14T12:50:33.284Z,21.1
2018-05-14T12:52:12.934Z,21.1
2018-05-14T12:53:03.474Z,21.1
2018-05-14T12:53:53.294Z,21.1
2018-05-14T12:56:23.167Z,21.1
2018-05-14T12:59:43.474Z,21.1
2018-05-14T13:01:23.625Z,21.1
2018-05-14T13:18:54.999Z,21.2
2018-05-14T13:21:25.104Z,21.2
2018-05-14T13:23:54.997Z,21.2
2018-05-14T13:24:45.642Z,21.2
2018-05-14T13:26:27.218Z,21.2
2018-05-14T13:27:15.250Z,21.2
2018-05-14T13:28:05.609Z,21.2
2018-05-14T13:28:55.679Z,21.2
2018-05-14T13:29:45.501Z,21.2
2018-05-14T13:30:34.749Z,21.2
2018-05-14T13:33:06.291Z,21.2
2018-05-14T13:33:55.314Z,21.2
2018-05-14T13:35:36.473Z,21.2
2018-05-14T13:39:46.501Z,21.2
2018-05-14T13:43:06.471Z,21.2
2018-05-14T13:43:56.905Z,21.2
2018-05-14T13:46:26.259Z,21.2
2018-05-14T13:47:15.779Z,21.2
2018-05-14T13:48:06.045Z,21.2
2018-05-14T13:48:56.749Z,21.2
2018-05-14T13:50:35.496Z,21.2
2018-05-14T13:51:27.719Z,21.2
2018-05-14T13:52:17.695Z,21.2
2018-05-14T13:53:07.356Z,21.2
2018-05-14T13:53:57.851Z,21.2
2018-05-14T13:54:47.658Z,21.2
2018-05-14T13:55:37.017Z,21.2
2018-05-14T13:57:19.131Z,21.2
2018-05-14T13:58:07.707Z,21.2
2018-05-14T14:00:38.368Z,21.2
2018-05-14T14:01:27.766Z,21.2
2018-05-14T14:02:17.928Z,21.2
2018-05-14T14:03:08.234Z,21.2
2018-05-14T14:04:48.935Z,21.2
2018-05-14T14:06:28.685Z,21.2
2018-05-14T14:07:18.005Z,21.2
2018-05-14T14:08:08.385Z,21.2
2018-05-14T14:08:58.698Z,21.2
2018-05-14T14:13:08.426Z,21.1
2018-05-14T14:13:59.118Z,21.1
2018-05-14T14:14:49.461Z,21.1
2018-05-14T14:15:39.205Z,21.1
2018-05-14T14:16:28.709Z,21.1
2018-05-14T14:17:18.519Z,21.1
2018-05-14T14:18:10.092Z,21.1
2018-05-14T14:18:58.737Z,21.1
2018-05-14T14:19:49.260Z,21.1
2018-05-14T14:20:39.327Z,21
2018-05-14T14:21:29.985Z,21.1
2018-05-14T14:22:19.728Z,21
2018-05-14T14:23:09.047Z,21.1
2018-05-14T14:24:04.957Z,21
2018-05-14T14:24:49.952Z,21.1
2018-05-14T14:25:39.618Z,21.1
2018-05-14T14:26:28.890Z,21.1
2018-05-14T14:27:20.357Z,21
2018-05-14T14:28:09.312Z,21
2018-05-14T14:29:00.265Z,21.1
2018-05-14T14:29:49.776Z,21
2018-05-14T14:30:40.062Z,21
2018-05-14T14:31:30.149Z,21
2018-05-14T14:32:19.694Z,25.2
2018-05-14T14:33:10.827Z,27.4
2018-05-14T14:34:00.602Z,28.3
2018-05-14T14:34:50.793Z,29.2
2018-05-14T14:35:40.459Z,29.9
2018-05-14T14:36:31.817Z,30.3
2018-05-14T14:37:20.136Z,30.6
2018-05-14T14:38:11.461Z,30.8
2018-05-14T14:39:00.756Z,30.9
2018-05-14T14:39:50.551Z,30.9
2018-05-14T14:40:39.742Z,30.9
2018-05-14T14:41:31.667Z,30.9
2018-05-14T14:42:21.436Z,33.4
2018-05-14T14:43:11.817Z,35.1
2018-05-14T14:44:01.614Z,35.9
2018-05-14T14:44:51.653Z,36.6
2018-05-14T14:45:41.965Z,37.1
2018-05-14T14:46:32.874Z,37.4
2018-05-14T14:47:21.820Z,37.6
2018-05-14T14:48:12.200Z,37.8
2018-05-14T14:49:01.916Z,37.9
2018-05-14T14:49:52.321Z,38.1
2018-05-14T14:50:42.134Z,38.3
2018-05-14T14:51:31.636Z,38.4
2018-05-14T14:52:22.243Z,38.6
2018-05-14T14:53:12.002Z,38.7
2018-05-14T14:54:02.143Z,38.9
2018-05-14T14:54:52.401Z,39
2018-05-14T14:55:42.204Z,39
2018-05-14T14:56:32.372Z,39.1
2018-05-14T14:57:22.657Z,39.2
2018-05-14T14:58:12.444Z,39.3
2018-05-14T14:59:02.728Z,39.3
2018-05-14T14:59:52.539Z,39.3
2018-05-14T15:00:42.659Z,39.4
2018-05-14T15:01:33.286Z,39.4
2018-05-14T15:02:22.993Z,39.4
2018-05-14T15:03:13.066Z,39.4
2018-05-14T15:04:03.115Z,39.6
2018-05-14T15:04:53.440Z,39.6
2018-05-14T15:05:43.492Z,39.6
2018-05-14T15:06:32.751Z,39.8
2018-05-14T15:07:23.095Z,39.8
2018-05-14T15:08:13.696Z,39.8
2018-05-14T15:09:03.471Z,39.9
2018-05-14T15:09:53.252Z,39.9
2018-05-14T15:10:43.929Z,39.8
2018-05-14T15:11:33.386Z,39.8
2018-05-14T15:12:23.478Z,39.8
2018-05-14T15:13:13.739Z,39.8
2018-05-14T15:14:04.126Z,39.8
2018-05-14T15:14:54.181Z,39.9
2018-05-14T15:15:43.963Z,39.9
2018-05-14T15:16:33.786Z,39.9
2018-05-14T15:17:24.083Z,39.9
2018-05-14T15:18:14.191Z,39.9
2018-05-14T15:19:04.516Z,39.8
2018-05-14T15:19:54.319Z,39.8
2018-05-14T15:20:44.050Z,39.6
2018-05-14T15:21:34.714Z,39.6